Time;durP1;ratioP1;P1;durP2;ratioP2;P2;SDS_P1;SDS_P2;PMS_P1;PMS_P2;Temp;Humidity;BMP_temperature;BMP_pressure;BME280_temperature;BME280_humidity;BME280_pressure;Samples;Min_cycle;Max_cycle;Signal;HPM_P1;HPM_P2
2022/01/19 00:01:19;;;;;;;2.40;1.65;;;16.20;50.50;;;;;;5038612;28;45365;-88
2022/01/19 00:03:47;;;;;;;1.65;1.40;;;17.10;51.40;;;;;;5033059;28;44677;-87
2022/01/19 00:06:16;;;;;;;2.30;1.50;;;17.10;53.40;;;;;;5049583;28;45364;-87
2022/01/19 00:08:50;;;;;;;3.08;1.77;;;17.10;53.00;;;;;;5049714;28;47607;-87
2022/01/19 00:11:21;;;;;;;2.45;1.50;;;17.10;52.80;;;;;;5032240;28;45190;-88
2022/01/19 00:13:52;;;;;;;2.45;1.30;;;17.20;51.40;;;;;;5030375;28;44910;-87
2022/01/19 00:16:31;;;;;;;2.20;1.45;;;17.20;51.50;;;;;;5028735;28;45248;-88
2022/01/19 00:19:02;;;;;;;2.05;1.45;;;17.00;55.70;;;;;;5049767;28;46519;-87
2022/01/19 00:21:32;;;;;;;1.90;1.40;;;17.10;51.40;;;;;;5030927;28;44968;-88
2022/01/19 00:24:03;;;;;;;2.35;1.38;;;19.10;53.20;;;;;;5030518;28;45122;-87
2022/01/19 00:26:32;;;;;;;2.20;1.40;;;17.10;51.50;;;;;;5030007;28;44787;-87
2022/01/19 00:29:01;;;;;;;1.92;1.40;;;17.40;55.90;;;;;;5042144;28;48090;-87
2022/01/19 00:31:35;;;;;;;2.30;1.45;;;17.20;50.80;;;;;;5049539;28;44736;-88
2022/01/19 00:34:10;;;;;;;2.30;1.42;;;17.30;57.20;;;;;;5047023;28;45142;-87
2022/01/19 00:36:38;;;;;;;1.95;1.10;;;17.00;53.30;;;;;;5039887;28;45198;-87
2022/01/19 00:39:07;;;;;;;1.67;1.20;;;17.10;52.30;;;;;;5027424;28;48531;-87
2022/01/19 00:41:35;;;;;;;2.97;1.20;;;17.50;57.50;;;;;;5041023;28;44866;-87
2022/01/19 00:44:03;;;;;;;2.17;1.40;;;18.30;56.20;;;;;;5046306;28;45186;-87
2022/01/19 00:46:34;;;;;;;1.60;1.05;;;17.30;57.10;;;;;;5027180;28;45241;-87
2022/01/19 00:49:10;;;;;;;1.10;1.00;;;17.10;56.40;;;;;;5042428;28;48448;-88
2022/01/19 00:51:38;;;;;;;1.38;0.90;;;17.90;58.40;;;;;;5038496;28;44971;-87
2022/01/19 00:54:08;;;;;;;2.15;1.40;;;17.20;55.70;;;;;;5027032;28;45578;-87
2022/01/19 00:56:38;;;;;;;2.42;1.20;;;17.10;53.80;;;;;;5041799;28;45197;-87
2022/01/19 00:59:28;;;;;;;1.85;1.08;;;17.00;53.30;;;;;;5043558;28;45771;-87
2022/01/19 01:02:01;;;;;;;1.70;1.20;;;17.00;54.00;;;;;;5035282;28;45115;-87
2022/01/19 01:04:32;;;;;;;2.30;1.40;;;17.00;51.20;;;;;;5047372;28;45179;-87
2022/01/19 01:07:09;;;;;;;1.75;1.23;;;17.30;52.50;;;;;;5044417;28;45211;-87
2022/01/19 01:09:37;;;;;;;1.85;1.23;;;17.30;51.50;;;;;;5045093;28;45554;-88
2022/01/19 01:12:22;;;;;;;3.13;1.40;;;17.00;51.10;;;;;;5042597;28;45015;-88
2022/01/19 01:20:23;;;;;;;1.48;1.30;;;19.10;53.10;;;;;;5044700;28;45125;-87
2022/01/19 01:22:50;;;;;;;1.40;1.10;;;16.90;51.20;;;;;;5048565;28;45030;-87
2022/01/19 01:25:19;;;;;;;3.20;1.38;;;17.00;51.60;;;;;;5040827;28;45350;-88
2022/01/19 01:27:49;;;;;;;2.80;1.33;;;17.00;52.00;;;;;;5047887;28;45245;-88
2022/01/19 01:30:19;;;;;;;1.30;1.05;;;17.00;52.70;;;;;;5049521;28;46903;-87
2022/01/19 01:32:51;;;;;;;1.50;1.23;;;18.20;55.30;;;;;;5048873;28;45284;-87
2022/01/19 01:35:25;;;;;;;2.67;1.40;;;17.20;50.80;;;;;;5032674;28;44759;-87
2022/01/19 01:37:53;;;;;;;2.60;1.55;;;17.00;50.60;;;;;;5041599;28;45056;-87
2022/01/19 01:40:25;;;;;;;1.33;1.10;;;17.10;56.00;;;;;;5029049;28;46974;-88
2022/01/19 01:43:00;;;;;;;2.58;1.10;;;17.00;53.20;;;;;;5042712;28;45176;-88
2022/01/19 01:45:31;;;;;;;2.10;1.40;;;17.90;52.30;;;;;;5043937;28;44694;-88
2022/01/19 01:48:11;;;;;;;3.33;1.30;;;17.30;55.80;;;;;;5041046;28;44914;-88
2022/01/19 01:53:33;;;;;;;1.75;1.45;;;16.90;55.90;;;;;;5045171;28;45077;-87
2022/01/19 01:56:07;;;;;;;2.03;1.20;;;17.10;51.00;;;;;;5033546;28;44808;-88
2022/01/19 01:58:41;;;;;;;2.83;1.50;;;17.20;50.50;;;;;;5030071;28;45017;-87
2022/01/19 02:01:12;;;;;;;2.42;1.45;;;17.40;52.60;;;;;;5045408;28;46162;-88
2022/01/19 02:03:45;;;;;;;1.98;1.40;;;18.10;54.90;;;;;;5045471;28;46541;-87
2022/01/19 02:09:01;;;;;;;2.17;1.45;;;15.30;48.90;;;;;;5037699;28;44862;-87
2022/01/19 02:23:18;;;;;;;2.00;1.40;;;17.00;48.80;;;;;;5037803;28;44991;-88
2022/01/19 02:25:57;;;;;;;1.73;1.40;;;17.00;49.00;;;;;;5048372;28;45344;-88
2022/01/19 02:40:10;;;;;;;3.15;1.75;;;17.20;52.70;;;;;;5034565;28;44772;-88
2022/01/19 02:42:38;;;;;;;2.40;1.52;;;17.10;52.50;;;;;;5030466;28;44780;-88
2022/01/19 02:50:46;;;;;;;2.83;1.77;;;18.00;50.80;;;;;;5035453;28;44811;-88
2022/01/19 02:53:16;;;;;;;1.88;1.35;;;17.10;49.60;;;;;;5049754;28;45075;-88
2022/01/19 02:58:36;;;;;;;2.67;1.80;;;17.10;48.80;;;;;;5040327;28;44944;-88
2022/01/19 03:09:41;;;;;;;2.65;1.50;;;17.00;48.80;;;;;;5031309;28;44780;-89
2022/01/19 03:12:20;;;;;;;2.20;1.52;;;16.80;48.90;;;;;;5037522;28;44752;-88
2022/01/19 03:14:48;;;;;;;2.60;1.60;;;17.00;51.70;;;;;;5029999;28;45432;-87
2022/01/19 03:17:22;;;;;;;2.17;1.50;;;17.10;53.40;;;;;;5012907;28;46236;-88
2022/01/19 03:19:53;;;;;;;2.40;1.63;;;18.90;54.60;;;;;;5036154;28;45019;-87
2022/01/19 03:22:26;;;;;;;2.20;1.85;;;17.60;51.00;;;;;;5030013;28;44647;-87
2022/01/19 03:24:59;;;;;;;3.22;1.67;;;19.00;51.60;;;;;;5040819;28;44942;-88
2022/01/19 03:30:36;;;;;;;3.53;2.00;;;17.10;48.50;;;;;;5058651;28;45040;-88
2022/01/19 03:33:04;;;;;;;2.83;1.80;;;17.30;52.80;;;;;;5060024;28;45119;-88
2022/01/19 03:35:48;;;;;;;3.30;1.90;;;17.90;54.00;;;;;;5040008;28;44920;-88
2022/01/19 03:38:19;;;;;;;2.65;2.25;;;17.10;49.70;;;;;;5048207;28;45326;-88
2022/01/19 03:40:54;;;;;;;2.97;2.05;;;17.10;48.70;;;;;;5032603;28;44827;-88
2022/01/19 03:43:26;;;;;;;4.03;2.47;;;17.00;50.20;;;;;;5047282;28;45061;-87
2022/01/19 03:46:04;;;;;;;4.82;2.95;;;17.10;51.50;;;;;;5032709;28;45083;-89
2022/01/19 03:48:42;;;;;;;3.22;2.40;;;19.10;53.60;;;;;;5046850;28;46955;-87
2022/01/19 03:51:14;;;;;;;3.60;2.53;;;18.10;54.20;;;;;;5039610;28;44876;-88
2022/01/19 03:53:46;;;;;;;3.97;2.72;;;17.00;49.10;;;;;;5036553;28;45192;-87
2022/01/19 03:56:25;;;;;;;3.85;2.92;;;17.10;51.80;;;;;;5040896;28;45045;-88
2022/01/19 03:59:12;;;;;;;4.68;2.72;;;15.40;48.10;;;;;;5049642;28;45749;-87
2022/01/19 04:01:39;;;;;;;5.13;2.90;;;17.40;49.30;;;;;;5034497;28;45477;-87
2022/01/19 04:04:33;;;;;;;3.97;2.70;;;17.00;54.40;;;;;;5029822;28;44685;-88
2022/01/19 04:07:09;;;;;;;4.18;2.92;;;19.30;52.90;;;;;;5046238;28;45480;-86
2022/01/19 04:10:25;;;;;;;4.05;2.45;;;17.20;49.10;;;;;;5049506;28;45767;-88
2022/01/19 04:13:08;;;;;;;5.35;2.85;;;17.00;48.80;;;;;;5026357;28;44708;-87
2022/01/19 04:15:46;;;;;;;5.28;3.03;;;17.00;49.30;;;;;;5051966;28;45357;-89
2022/01/19 04:18:17;;;;;;;4.22;2.53;;;17.10;50.00;;;;;;5044891;28;44942;-87
2022/01/19 04:20:51;;;;;;;4.65;2.70;;;17.00;49.20;;;;;;5057009;28;45827;-88
2022/01/19 04:23:35;;;;;;;4.53;2.60;;;16.60;49.90;;;;;;5071672;28;44783;-88
2022/01/19 04:26:05;;;;;;;3.50;2.70;;;17.40;51.10;;;;;;5053731;28;44791;-88
2022/01/19 04:28:37;;;;;;;3.50;2.25;;;16.50;49.90;;;;;;5037388;28;44848;-88
2022/01/19 04:31:17;;;;;;;3.15;2.30;;;17.10;51.10;;;;;;5030093;28;45029;-88
2022/01/19 04:33:45;;;;;;;3.17;2.30;;;17.50;49.20;;;;;;5039144;28;45017;-87
2022/01/19 04:44:57;;;;;;;3.78;2.10;;;17.10;52.60;;;;;;5046306;28;44831;-87
2022/01/19 05:01:51;;;;;;;2.50;1.85;;;17.20;49.00;;;;;;5034131;28;44860;-88
2022/01/19 05:04:37;;;;;;;2.40;1.83;;;17.30;54.20;;;;;;5038537;28;45326;-87
2022/01/19 05:07:35;;;;;;;2.47;1.92;;;17.20;50.10;;;;;;5041369;28;44741;-87
2022/01/19 05:13:24;;;;;;;3.28;1.95;;;17.00;48.60;;;;;;5028832;28;45265;-87
2022/01/19 05:20:49;;;;;;;3.63;1.98;;;17.00;50.40;;;;;;5011784;28;44938;-88
2022/01/19 05:23:17;;;;;;;2.97;1.90;;;17.00;48.70;;;;;;4997279;28;44689;-87
2022/01/19 05:25:53;;;;;;;2.05;1.70;;;17.00;50.40;;;;;;5013151;28;47444;-88
2022/01/19 05:28:22;;;;;;;3.17;1.90;;;17.00;48.80;;;;;;5013170;28;44725;-87
2022/01/19 05:30:52;;;;;;;2.47;1.50;;;17.10;50.00;;;;;;5013415;28;44696;-87
2022/01/19 05:33:35;;;;;;;2.25;1.70;;;17.00;49.90;;;;;;5013707;28;44718;-88
2022/01/19 05:36:07;;;;;;;3.08;1.80;;;17.00;51.30;;;;;;4997524;28;46685;-87
2022/01/19 05:38:38;;;;;;;2.90;2.15;;;17.00;50.00;;;;;;5013837;28;44606;-88
2022/01/19 05:41:08;;;;;;;3.80;2.00;;;17.00;50.70;;;;;;5014135;28;44633;-88
2022/01/19 05:43:45;;;;;;;3.25;2.17;;;16.90;51.40;;;;;;5013670;28;44764;-87
2022/01/19 05:49:06;;;;;;;2.28;1.88;;;16.90;49.80;;;;;;5013301;28;44699;-87
2022/01/19 05:51:41;;;;;;;3.50;1.95;;;16.90;49.10;;;;;;4996572;28;44563;-88
2022/01/19 05:54:20;;;;;;;3.20;1.92;;;17.30;52.50;;;;;;5013335;28;44764;-87
2022/01/19 05:56:46;;;;;;;1.90;1.60;;;17.10;50.10;;;;;;5011536;28;47494;-86
2022/01/19 05:59:14;;;;;;;2.80;1.90;;;17.00;49.50;;;;;;5012062;28;44630;-86
2022/01/19 06:01:45;;;;;;;2.53;1.65;;;17.00;51.40;;;;;;5012757;28;44715;-86
2022/01/19 06:04:16;;;;;;;3.92;2.05;;;17.00;51.20;;;;;;5013176;28;44825;-86
2022/01/19 06:06:46;;;;;;;2.80;1.80;;;17.00;51.80;;;;;;5011289;28;45881;-87
2022/01/19 06:09:34;;;;;;;2.58;1.60;;;17.20;51.90;;;;;;4995281;28;44717;-87
2022/01/19 06:12:05;;;;;;;2.35;1.60;;;16.90;50.70;;;;;;5012677;28;44787;-86
2022/01/19 06:14:36;;;;;;;2.97;1.75;;;17.20;50.90;;;;;;4995962;28;44732;-86
2022/01/19 06:17:11;;;;;;;2.00;1.75;;;16.90;49.00;;;;;;5011691;28;46619;-86
2022/01/19 06:19:44;;;;;;;4.57;1.88;;;17.20;50.80;;;;;;5013912;28;44711;-87
2022/01/19 06:22:17;;;;;;;2.30;1.60;;;16.90;52.20;;;;;;5012318;28;44684;-88
2022/01/19 06:24:48;;;;;;;2.28;1.67;;;17.40;52.20;;;;;;5013222;28;44781;-88
2022/01/19 06:27:19;;;;;;;4.32;2.20;;;16.90;51.40;;;;;;5013124;28;45164;-88
2022/01/19 06:29:49;;;;;;;3.35;1.90;;;16.90;51.10;;;;;;5012995;28;44536;-88
2022/01/19 06:32:19;;;;;;;3.70;1.98;;;16.90;51.30;;;;;;5011047;28;44785;-86
2022/01/19 06:34:47;;;;;;;3.30;1.70;;;16.90;50.40;;;;;;5008628;28;44676;-86
2022/01/19 06:37:23;;;;;;;2.33;1.60;;;16.90;51.30;;;;;;4992271;28;45306;-90
2022/01/19 06:42:34;;;;;;;1.83;1.40;;;17.20;52.40;;;;;;5011816;28;44550;-86
2022/01/19 06:45:02;;;;;;;3.42;1.58;;;16.90;53.00;;;;;;5011824;28;45036;-86
2022/01/19 06:47:29;;;;;;;3.75;2.00;;;16.90;51.40;;;;;;5012093;28;46259;-86
2022/01/19 06:49:58;;;;;;;2.72;1.95;;;17.00;51.40;;;;;;5011872;28;44698;-86
2022/01/19 06:53:04;;;;;;;2.80;1.70;;;17.00;51.00;;;;;;5005695;28;44755;-88
2022/01/19 06:55:34;;;;;;;1.98;1.50;;;17.00;50.60;;;;;;5010353;28;44934;-88
2022/01/19 06:58:02;;;;;;;2.65;1.48;;;16.70;51.10;;;;;;5011631;28;46864;-88
2022/01/19 07:00:40;;;;;;;2.35;1.45;;;17.20;57.20;;;;;;5011089;28;44786;-87
2022/01/19 07:06:17;;;;;;;2.25;1.75;;;19.20;57.40;;;;;;5011511;28;44817;-88
2022/01/19 07:08:56;;;;;;;3.05;2.00;;;17.10;50.60;;;;;;5011044;28;45294;-88
2022/01/19 07:11:52;;;;;;;2.67;1.83;;;17.10;50.30;;;;;;5013223;28;44628;-87
2022/01/19 07:17:13;;;;;;;3.42;1.88;;;17.10;50.20;;;;;;5007385;28;44889;-87
2022/01/19 07:19:41;;;;;;;2.72;1.70;;;17.40;53.90;;;;;;5011587;28;47282;-87
2022/01/19 07:22:11;;;;;;;2.08;1.50;;;17.10;53.50;;;;;;5011667;28;44692;-87
2022/01/19 07:24:48;;;;;;;2.30;1.70;;;17.20;52.90;;;;;;5012340;28;44756;-87
2022/01/19 07:27:25;;;;;;;3.30;1.80;;;17.10;56.30;;;;;;5012589;28;44941;-87
2022/01/19 07:29:55;;;;;;;2.60;1.90;;;17.00;52.20;;;;;;5012320;28;47262;-88
2022/01/19 07:32:34;;;;;;;2.20;1.90;;;17.00;55.80;;;;;;5012296;28;44607;-87
2022/01/19 07:35:15;;;;;;;2.03;1.50;;;17.60;50.80;;;;;;5009885;28;44743;-87
2022/01/19 07:37:44;;;;;;;1.90;1.73;;;17.40;50.30;;;;;;4988724;28;44848;-87
2022/01/19 07:40:13;;;;;;;2.65;1.70;;;17.30;55.90;;;;;;5009868;28;47282;-87
2022/01/19 07:42:42;;;;;;;2.60;2.10;;;17.40;50.20;;;;;;5006200;28;44779;-86
2022/01/19 07:45:21;;;;;;;3.17;1.92;;;17.10;52.40;;;;;;5001356;28;44641;-86
2022/01/19 07:47:53;;;;;;;2.80;1.80;;;17.10;52.30;;;;;;5011406;28;44925;-86
2022/01/19 07:50:30;;;;;;;4.13;1.70;;;18.20;55.00;;;;;;5004344;28;47291;-86
2022/01/19 07:53:00;;;;;;;2.42;1.92;;;17.20;53.80;;;;;;5009823;28;45230;-86
2022/01/19 07:55:27;;;;;;;2.78;1.90;;;17.00;51.30;;;;;;5011339;28;44807;-86
2022/01/19 07:57:59;;;;;;;2.17;1.60;;;17.00;50.90;;;;;;4996152;28;44937;-87
2022/01/19 08:00:29;;;;;;;2.08;1.60;;;17.00;49.20;;;;;;4995772;28;45999;-86
2022/01/19 08:02:57;;;;;;;3.17;1.60;;;17.00;51.30;;;;;;5014725;28;44634;-86
2022/01/19 08:05:26;;;;;;;1.90;1.65;;;17.20;51.60;;;;;;5011725;28;44696;-86
2022/01/19 08:08:02;;;;;;;2.20;1.83;;;17.00;50.30;;;;;;5011494;28;44809;-86
2022/01/19 08:10:32;;;;;;;2.85;1.98;;;17.00;50.10;;;;;;5012427;28;45542;-86
2022/01/19 08:13:12;;;;;;;1.75;1.63;;;17.10;49.60;;;;;;5004539;28;44805;-86
2022/01/19 08:15:40;;;;;;;3.47;1.85;;;17.30;50.90;;;;;;5014643;28;44717;-86
2022/01/19 08:18:10;;;;;;;2.85;1.70;;;18.00;52.00;;;;;;5013841;28;44914;-86
2022/01/19 08:20:40;;;;;;;1.95;1.63;;;17.00;53.30;;;;;;5013569;28;45500;-86
2022/01/19 08:23:08;;;;;;;2.47;1.80;;;17.50;49.70;;;;;;5014646;28;45097;-87
2022/01/19 08:25:43;;;;;;;2.08;1.77;;;17.10;52.00;;;;;;4997547;28;44770;-87
2022/01/19 08:28:13;;;;;;;2.83;1.55;;;17.10;49.50;;;;;;5014711;28;44831;-87
2022/01/19 08:30:44;;;;;;;2.35;1.67;;;17.10;48.20;;;;;;5014294;28;47707;-86
2022/01/19 08:33:22;;;;;;;3.80;1.70;;;17.10;49.40;;;;;;5014781;28;44678;-86
2022/01/19 08:35:54;;;;;;;1.80;1.42;;;17.50;49.40;;;;;;5013800;28;44554;-86
2022/01/19 08:38:23;;;;;;;2.38;1.48;;;17.50;49.00;;;;;;4980262;28;44773;-86
2022/01/19 08:40:55;;;;;;;2.75;1.60;;;17.30;54.60;;;;;;5013975;28;45050;-86
2022/01/19 08:43:25;;;;;;;2.03;1.55;;;18.80;51.80;;;;;;5014312;28;44689;-86
2022/01/19 08:45:57;;;;;;;1.73;1.63;;;17.10;50.40;;;;;;5003920;28;44657;-87
2022/01/19 08:48:27;;;;;;;2.50;1.80;;;17.00;49.70;;;;;;5013392;28;44841;-86
2022/01/19 08:50:58;;;;;;;1.30;1.20;;;17.00;52.10;;;;;;4999048;28;45581;-86
2022/01/19 08:53:25;;;;;;;1.90;1.70;;;17.10;48.50;;;;;;5013954;28;44550;-87
2022/01/19 08:55:54;;;;;;;2.63;1.70;;;17.30;53.30;;;;;;5014156;28;44620;-86
2022/01/19 08:58:37;;;;;;;2.55;1.80;;;17.10;58.00;;;;;;5014353;28;44939;-86
2022/01/19 09:01:08;;;;;;;1.63;1.40;;;17.10;50.30;;;;;;5013560;28;47176;-87
2022/01/19 09:03:38;;;;;;;3.60;1.70;;;17.10;48.70;;;;;;5018272;28;44692;-86
2022/01/19 09:06:12;;;;;;;3.10;1.92;;;19.00;50.10;;;;;;5013565;28;44863;-87
2022/01/19 09:08:48;;;;;;;2.22;1.50;;;17.00;48.60;;;;;;5014019;28;44844;-86
2022/01/19 09:11:21;;;;;;;2.80;1.52;;;17.30;50.10;;;;;;4998457;28;45201;-87
2022/01/19 09:13:58;;;;;;;2.17;1.50;;;17.10;49.60;;;;;;4997680;28;44568;-86
2022/01/19 09:16:38;;;;;;;1.88;1.40;;;17.10;49.40;;;;;;5014268;28;44514;-87
2022/01/19 09:19:10;;;;;;;2.65;1.60;;;17.10;49.70;;;;;;4997094;28;44756;-86
2022/01/19 09:21:40;;;;;;;2.00;1.60;;;17.10;50.70;;;;;;5013352;28;47586;-86
2022/01/19 09:24:24;;;;;;;1.67;1.45;;;17.10;50.70;;;;;;5013631;28;44648;-87
2022/01/19 09:26:54;;;;;;;2.85;1.73;;;17.10;49.70;;;;;;5013901;28;44538;-86
2022/01/19 09:29:25;;;;;;;2.08;1.80;;;17.30;48.80;;;;;;4996807;28;44908;-86
2022/01/19 09:31:59;;;;;;;2.53;1.50;;;17.10;48.90;;;;;;5013203;28;46228;-86
2022/01/19 09:34:27;;;;;;;2.35;1.90;;;17.10;48.30;;;;;;5013399;28;44522;-87
2022/01/19 09:36:56;;;;;;;1.63;1.25;;;17.20;49.50;;;;;;4996518;28;44607;-86
2022/01/19 09:39:27;;;;;;;2.25;1.58;;;17.10;49.40;;;;;;5007225;28;44870;-86
2022/01/19 09:42:04;;;;;;;2.47;1.70;;;17.10;49.10;;;;;;5004255;28;47401;-86
2022/01/19 09:44:40;;;;;;;1.88;1.70;;;17.10;48.80;;;;;;5004188;28;44719;-86
2022/01/19 09:47:11;;;;;;;2.38;1.80;;;17.20;48.30;;;;;;4995915;28;44927;-86
2022/01/19 09:49:40;;;;;;;1.90;1.80;;;17.30;48.20;;;;;;5013209;28;44740;-86
2022/01/19 09:52:12;;;;;;;2.75;1.95;;;17.10;48.20;;;;;;5012141;28;45581;-86
2022/01/19 09:54:44;;;;;;;2.33;1.75;;;17.00;47.90;;;;;;4980513;28;45075;-86
2022/01/19 09:57:19;;;;;;;2.50;1.80;;;17.00;48.10;;;;;;5011878;28;44638;-86
2022/01/19 09:59:53;;;;;;;2.53;1.92;;;17.10;48.20;;;;;;5013756;28;44585;-87
2022/01/19 10:02:22;;;;;;;1.90;1.65;;;17.30;49.70;;;;;;5012362;28;45653;-87
2022/01/19 10:04:52;;;;;;;1.90;1.70;;;19.10;53.90;;;;;;5013256;28;44892;-87
2022/01/19 10:07:23;;;;;;;2.53;2.20;;;17.40;54.40;;;;;;5013003;28;44724;-87
2022/01/19 10:09:56;;;;;;;3.38;2.15;;;17.40;49.20;;;;;;5013365;28;44887;-86
2022/01/19 10:18:16;;;;;;;2.75;1.92;;;17.30;49.20;;;;;;5011971;28;44586;-87
2022/01/19 10:21:12;;;;;;;2.13;1.88;;;17.10;47.30;;;;;;5013248;28;44917;-86
2022/01/19 10:23:45;;;;;;;3.50;2.05;;;17.10;47.30;;;;;;5012685;28;47302;-87
2022/01/19 10:26:35;;;;;;;3.50;1.83;;;17.10;47.40;;;;;;5012893;28;45170;-87
2022/01/19 10:29:09;;;;;;;2.03;1.52;;;17.30;48.80;;;;;;5012597;28;44735;-86
2022/01/19 10:31:46;;;;;;;2.30;1.85;;;17.10;47.60;;;;;;5012608;28;44788;-87
2022/01/19 10:34:17;;;;;;;2.55;1.85;;;17.10;47.70;;;;;;5005452;28;45790;-86
2022/01/19 10:36:48;;;;;;;2.13;1.67;;;17.20;47.70;;;;;;4996615;28;44678;-87
2022/01/19 10:39:24;;;;;;;1.83;1.60;;;17.10;50.00;;;;;;5012988;28;44570;-86
2022/01/19 10:42:10;;;;;;;2.47;1.83;;;17.70;48.20;;;;;;5012643;28;44843;-86
2022/01/19 10:44:41;;;;;;;1.60;1.50;;;17.10;47.60;;;;;;4995704;28;46400;-87
2022/01/19 10:47:18;;;;;;;2.20;1.83;;;17.00;47.70;;;;;;5012400;28;44663;-87
2022/01/19 10:50:05;;;;;;;1.98;1.75;;;17.10;47.60;;;;;;5012794;28;44520;-86
2022/01/19 10:52:48;;;;;;;2.17;1.75;;;17.30;47.70;;;;;;5012351;28;44926;-87
2022/01/19 10:55:31;;;;;;;1.90;1.63;;;17.00;47.80;;;;;;5012583;28;45628;-86
2022/01/19 10:58:17;;;;;;;2.05;1.50;;;17.10;48.70;;;;;;5012588;28;44550;-86
2022/01/19 11:00:56;;;;;;;2.13;1.70;;;17.30;49.80;;;;;;5010421;28;44869;-87
2022/01/19 11:03:28;;;;;;;2.78;1.85;;;17.10;51.90;;;;;;4996168;28;44785;-86
2022/01/19 11:05:59;;;;;;;2.33;1.95;;;17.00;50.00;;;;;;5012242;28;47023;-86
2022/01/19 11:08:34;;;;;;;2.50;1.27;;;17.00;47.40;;;;;;5012370;28;44681;-86
2022/01/19 11:11:13;;;;;;;1.77;1.45;;;19.10;53.30;;;;;;5012527;28;44552;-86
2022/01/19 11:13:45;;;;;;;2.65;1.63;;;17.30;48.90;;;;;;5012603;28;44708;-86
2022/01/19 11:16:21;;;;;;;1.73;1.42;;;17.00;48.30;;;;;;4983659;28;46385;-86
2022/01/19 11:18:54;;;;;;;2.53;1.90;;;17.10;48.00;;;;;;4992672;28;44858;-86
2022/01/19 11:21:33;;;;;;;2.85;1.70;;;17.10;49.80;;;;;;5011737;28;44574;-87
2022/01/19 11:30:23;;;;;;;2.67;2.00;;;17.10;49.60;;;;;;5015962;28;44686;-88
2022/01/19 11:33:27;;;;;;;1.92;1.65;;;16.10;47.00;;;;;;5016243;28;44824;-88
2022/01/19 11:36:00;;;;;;;4.22;1.52;;;17.10;47.50;;;;;;4998956;28;44715;-88
2022/01/19 11:38:46;;;;;;;1.77;1.48;;;17.00;47.60;;;;;;5015887;28;45454;-87
2022/01/19 11:41:44;;;;;;;2.08;1.75;;;17.00;47.60;;;;;;5014922;28;44722;-88
2022/01/19 11:44:41;;;;;;;3.30;2.10;;;16.90;47.00;;;;;;4998373;28;44871;-87
2022/01/19 11:47:29;;;;;;;2.35;1.77;;;17.10;47.10;;;;;;5015359;28;44831;-87
2022/01/19 11:50:02;;;;;;;3.40;1.77;;;17.10;47.30;;;;;;5015023;28;46216;-87
2022/01/19 11:53:09;;;;;;;2.35;1.88;;;17.20;47.60;;;;;;5007575;28;44673;-87
2022/01/19 11:55:42;;;;;;;2.67;1.70;;;17.10;47.30;;;;;;5011188;28;44568;-87
2022/01/19 11:58:20;;;;;;;3.00;1.70;;;17.10;52.80;;;;;;5015243;28;44724;-87
2022/01/19 12:00:51;;;;;;;2.42;1.98;;;17.00;47.50;;;;;;4997034;28;45601;-87
2022/01/19 12:03:23;;;;;;;2.35;1.83;;;17.10;48.90;;;;;;5015429;28;44519;-87
2022/01/19 12:06:05;;;;;;;3.10;1.80;;;16.90;48.10;;;;;;5015603;28;44861;-87
2022/01/19 12:12:21;;;;;;;2.38;1.88;;;17.20;46.90;;;;;;5012774;28;45459;-86
2022/01/19 12:15:05;;;;;;;2.22;1.80;;;17.10;47.00;;;;;;5011994;28;44561;-85
2022/01/19 12:18:06;;;;;;;2.90;2.10;;;17.10;46.80;;;;;;5013355;28;44715;-86
2022/01/19 12:20:55;;;;;;;3.20;2.10;;;17.10;47.00;;;;;;5008595;28;44741;-86
2022/01/19 12:23:26;;;;;;;2.65;2.00;;;17.10;47.50;;;;;;5009405;28;46183;-86
2022/01/19 12:25:59;;;;;;;1.90;1.55;;;17.10;47.20;;;;;;5014023;28;44749;-85
2022/01/19 12:29:08;;;;;;;2.28;1.92;;;17.40;47.50;;;;;;5013688;28;44727;-85
2022/01/19 12:31:41;;;;;;;4.57;2.63;;;17.10;48.20;;;;;;5014253;28;44823;-86
2022/01/19 12:34:34;;;;;;;3.30;2.20;;;16.90;50.30;;;;;;4996829;28;46006;-86
2022/01/19 12:37:06;;;;;;;2.80;2.15;;;17.10;47.10;;;;;;5013135;28;44677;-86
2022/01/19 12:39:45;;;;;;;2.35;2.10;;;17.10;47.10;;;;;;5014372;28;44487;-86
2022/01/19 12:42:20;;;;;;;3.42;2.45;;;17.00;47.30;;;;;;5014468;28;44892;-86
2022/01/19 12:47:48;;;;;;;2.70;2.03;;;17.40;47.20;;;;;;5013124;28;44637;-86
2022/01/19 12:50:36;;;;;;;2.88;2.20;;;17.20;48.10;;;;;;5014017;28;44631;-86
2022/01/19 12:53:13;;;;;;;3.10;2.28;;;17.10;47.10;;;;;;5013935;28;44904;-87
2022/01/19 12:55:48;;;;;;;3.65;2.30;;;17.10;46.90;;;;;;4997878;28;46679;-86
2022/01/19 12:58:19;;;;;;;3.65;2.58;;;17.10;46.60;;;;;;5013760;28;44700;-86
2022/01/19 13:01:11;;;;;;;3.65;2.30;;;17.10;46.50;;;;;;5013907;28;44613;-86
2022/01/19 13:03:44;;;;;;;3.78;2.72;;;17.30;46.70;;;;;;4994566;28;44838;-87
2022/01/19 13:06:19;;;;;;;2.95;2.45;;;17.10;46.90;;;;;;4994150;28;45356;-87
2022/01/19 13:09:24;;;;;;;4.15;3.00;;;17.10;46.80;;;;;;5004985;28;44760;-87
2022/01/19 13:12:12;;;;;;;2.67;2.47;;;17.80;52.10;;;;;;4997125;28;44741;-86
2022/01/19 13:14:56;;;;;;;3.67;2.63;;;17.10;46.60;;;;;;5013702;28;44863;-86
2022/01/19 13:17:30;;;;;;;5.07;2.70;;;17.10;46.60;;;;;;5012829;28;44997;-87
2022/01/19 13:20:18;;;;;;;2.88;2.20;;;17.50;50.60;;;;;;5013593;28;45088;-87
2022/01/19 13:22:53;;;;;;;3.53;2.70;;;17.10;47.00;;;;;;5020608;28;44607;-87
2022/01/19 13:25:52;;;;;;;3.33;2.67;;;17.10;47.10;;;;;;5033754;28;44730;-86
2022/01/19 13:28:30;;;;;;;3.58;2.58;;;17.20;46.90;;;;;;5021650;28;45838;-87
2022/01/19 13:31:09;;;;;;;2.90;2.30;;;17.10;47.20;;;;;;5012836;28;44847;-87
2022/01/19 13:33:41;;;;;;;2.85;2.38;;;17.10;47.10;;;;;;5006529;28;44733;-87
2022/01/19 13:36:16;;;;;;;2.90;2.50;;;17.10;47.70;;;;;;5001863;28;44720;-87
2022/01/19 13:39:02;;;;;;;3.15;2.50;;;17.10;47.20;;;;;;5012156;28;45491;-86
2022/01/19 13:41:29;;;;;;;4.20;2.70;;;17.30;48.70;;;;;;5007372;28;44957;-87
2022/01/19 13:44:08;;;;;;;4.40;2.80;;;16.10;48.00;;;;;;5003828;28;44567;-87
2022/01/19 13:46:43;;;;;;;3.40;2.55;;;17.60;51.00;;;;;;5013798;28;44995;-88
2022/01/19 13:49:33;;;;;;;3.17;2.40;;;17.20;47.50;;;;;;5015578;28;46219;-88
2022/01/19 13:52:34;;;;;;;3.70;2.83;;;17.10;48.00;;;;;;5022201;28;45288;-88
2022/01/19 13:55:22;;;;;;;4.05;2.72;;;17.00;47.50;;;;;;5013889;28;45129;-87
2022/01/19 13:57:55;;;;;;;3.08;2.45;;;17.10;47.50;;;;;;4997268;28;44923;-88
2022/01/19 14:00:36;;;;;;;4.03;2.85;;;17.60;49.50;;;;;;5017437;28;45839;-88
2022/01/19 14:03:16;;;;;;;3.67;2.45;;;17.30;47.70;;;;;;5011501;28;44619;-88
2022/01/19 14:05:51;;;;;;;4.18;2.78;;;17.10;48.50;;;;;;5009210;28;44543;-87
2022/01/19 14:08:38;;;;;;;3.67;2.75;;;17.50;48.00;;;;;;5024998;28;44917;-88
2022/01/19 14:11:22;;;;;;;5.25;3.10;;;17.20;50.20;;;;;;5005163;28;45602;-87
2022/01/19 14:16:53;;;;;;;3.15;2.53;;;17.00;48.10;;;;;;5004438;28;44756;-88
2022/01/19 14:19:25;;;;;;;4.10;2.85;;;17.10;52.50;;;;;;5006539;28;45195;-87
2022/01/19 14:22:05;;;;;;;3.30;2.80;;;17.30;50.20;;;;;;5012548;28;45467;-87
2022/01/19 14:25:03;;;;;;;3.45;3.00;;;15.30;46.30;;;;;;4993621;28;44499;-87
2022/01/19 14:31:12;;;;;;;4.10;2.90;;;17.00;48.10;;;;;;5002215;28;44781;-87
2022/01/19 14:33:51;;;;;;;4.10;2.80;;;17.90;50.00;;;;;;5010050;28;46563;-88
2022/01/19 14:36:33;;;;;;;4.82;3.10;;;17.90;51.10;;;;;;5003887;28;44660;-87
2022/01/19 14:45:03;;;;;;;4.60;3.42;;;16.90;49.70;;;;;;5005409;28;45603;-87
2022/01/19 14:50:20;;;;;;;5.05;3.40;;;16.90;48.30;;;;;;5000800;28;44830;-86
2022/01/19 14:52:50;;;;;;;4.82;3.20;;;17.00;48.30;;;;;;5011453;28;44827;-86
2022/01/19 14:55:22;;;;;;;4.50;3.10;;;17.00;48.60;;;;;;5012009;28;47262;-85
2022/01/19 14:57:52;;;;;;;4.20;3.30;;;17.00;48.30;;;;;;5011743;28;45476;-86
2022/01/19 15:03:11;;;;;;;4.72;3.80;;;17.00;48.40;;;;;;5009600;28;44999;-87
2022/01/19 15:05:45;;;;;;;4.47;3.40;;;17.00;49.10;;;;;;5012351;28;45839;-87
2022/01/19 15:08:18;;;;;;;3.90;3.10;;;17.00;48.20;;;;;;5013008;28;44540;-88
2022/01/19 15:10:58;;;;;;;5.00;3.53;;;17.20;50.60;;;;;;5013283;28;44551;-87
2022/01/19 15:13:50;;;;;;;3.97;3.20;;;15.60;47.10;;;;;;5013025;28;44656;-87
2022/01/19 15:16:24;;;;;;;4.93;3.40;;;16.90;51.70;;;;;;5012399;28;45444;-88
2022/01/19 15:18:55;;;;;;;4.05;3.15;;;17.90;55.90;;;;;;5012282;28;44698;-87
2022/01/19 15:21:25;;;;;;;4.53;3.20;;;17.00;49.40;;;;;;5012600;28;44727;-87
2022/01/19 15:26:57;;;;;;;4.63;3.33;;;17.10;48.80;;;;;;5011926;28;45600;-87
2022/01/19 15:29:26;;;;;;;5.45;3.50;;;17.00;48.60;;;;;;5012221;28;44681;-87
2022/01/19 15:31:58;;;;;;;5.82;3.92;;;17.10;48.70;;;;;;5012262;28;44761;-87
2022/01/19 15:34:25;;;;;;;5.85;4.05;;;16.90;49.10;;;;;;5012008;28;44707;-86
2022/01/19 15:36:55;;;;;;;5.55;3.50;;;17.00;49.40;;;;;;5011842;28;46498;-87
2022/01/19 15:39:27;;;;;;;5.68;3.88;;;18.10;50.40;;;;;;5011621;28;44745;-87
2022/01/19 15:42:01;;;;;;;5.95;3.92;;;17.00;52.60;;;;;;4992140;28;44658;-87
2022/01/19 15:44:31;;;;;;;5.72;4.50;;;17.10;49.00;;;;;;4992279;28;44864;-87
2022/01/19 15:47:00;;;;;;;6.05;4.10;;;17.00;48.60;;;;;;4991268;28;45472;-87